Muelle Paraguana, Venezuela
Current Conditions -  °F | °C
As of 10:00 PM on Friday 19 Dec 2014 (Local Time) from TNCA Reporting Station
Few Clouds Few Clouds  
Wind Chill: 27°   Ceiling: Unl
Heat Index: 30°   Visibility: 6mi
Dew Point: 23°   Wind: 9mph
Humidity: 79%   Direction: 70°ENE
Pressure: 29.88"   Gusts: NA
Location:  11.78°N, 70.15°W
Report Text: TNCA 200200Z 07008KT 9999 FEW019 27/23 Q1012 A2991 NOSIG
Loading
Personal Weather Stations






























Interactive Weather Map New forecast layout! Learn more

10-Day Weather Forecast

Advertisements
Track Severe Weather on mobile